createdAt,value
2023-03-21T00:01:04.623Z,8.80
2023-03-21T00:03:33.796Z,8.90
2023-03-21T00:06:09.270Z,8.80
2023-03-21T00:08:36.055Z,8.80
2023-03-21T00:11:05.888Z,8.80
2023-03-21T00:13:33.546Z,8.80
2023-03-21T00:16:14.403Z,8.80
2023-03-21T00:18:52.383Z,8.80
2023-03-21T00:24:09.284Z,8.90
2023-03-21T00:26:36.018Z,8.90
2023-03-21T00:29:02.816Z,8.80
2023-03-21T00:31:32.547Z,8.80
2023-03-21T00:33:59.437Z,8.80
2023-03-21T00:36:26.711Z,8.70
2023-03-21T00:38:54.108Z,8.70
2023-03-21T00:41:35.018Z,8.70
2023-03-21T00:44:07.774Z,8.70
2023-03-21T00:46:45.212Z,8.70
2023-03-21T00:49:12.392Z,8.70
2023-03-21T00:51:39.056Z,8.70
2023-03-21T00:54:05.875Z,8.60
2023-03-21T00:56:32.975Z,8.70
2023-03-21T00:58:59.701Z,8.60
2023-03-21T01:01:31.745Z,8.70
2023-03-21T01:04:07.654Z,8.70
2023-03-21T01:06:40.733Z,8.70
2023-03-21T01:09:12.338Z,8.70
2023-03-21T01:11:39.404Z,8.70
2023-03-21T01:14:21.514Z,8.60
2023-03-21T01:16:53.351Z,8.60
2023-03-21T01:19:37.641Z,8.50
2023-03-21T01:22:09.542Z,8.60
2023-03-21T01:24:40.545Z,8.60
2023-03-21T01:27:10.411Z,8.60
2023-03-21T01:29:37.672Z,8.50
2023-03-21T01:32:04.641Z,8.50
2023-03-21T01:34:31.391Z,8.50
2023-03-21T01:36:58.178Z,8.50
2023-03-21T01:39:24.894Z,8.50
2023-03-21T01:41:51.619Z,8.50
2023-03-21T01:44:19.451Z,8.50
2023-03-21T01:47:03.955Z,8.50
2023-03-21T01:49:38.756Z,8.50
2023-03-21T01:52:15.190Z,8.40
2023-03-21T01:54:44.977Z,8.40
2023-03-21T01:57:41.021Z,8.40
2023-03-21T02:00:12.661Z,8.40
2023-03-21T02:02:52.148Z,8.30
2023-03-21T02:05:22.722Z,8.30
2023-03-21T02:07:52.704Z,8.30
2023-03-21T02:10:19.881Z,8.30
2023-03-21T02:12:46.667Z,8.30
2023-03-21T02:15:14.421Z,8.20
2023-03-21T02:17:47.799Z,8.20
2023-03-21T02:20:22.108Z,8.30
2023-03-21T02:23:15.256Z,8.20
2023-03-21T02:26:04.707Z,8.20
2023-03-21T02:28:37.205Z,8.20
2023-03-21T02:31:26.527Z,8.20
2023-03-21T02:33:59.452Z,8.20
2023-03-21T02:36:50.679Z,8.20
2023-03-21T02:39:26.403Z,8.20
2023-03-21T02:42:07.050Z,8.20
2023-03-21T02:44:56.927Z,8.10
2023-03-21T02:47:34.734Z,8.10
2023-03-21T02:50:24.721Z,8.10
2023-03-21T02:52:54.046Z,8.10
2023-03-21T02:55:25.727Z,8.10
2023-03-21T02:57:56.574Z,8.00
2023-03-21T03:00:27.733Z,8.10
2023-03-21T03:03:07.852Z,8.00
2023-03-21T03:05:41.795Z,8.10
2023-03-21T03:08:41.192Z,8.10
2023-03-21T03:11:33.137Z,8.10
2023-03-21T03:14:40.124Z,8.10
2023-03-21T03:17:20.660Z,8.10
2023-03-21T03:20:19.225Z,8.10
2023-03-21T03:23:22.147Z,8.00
2023-03-21T03:26:21.532Z,8.00
2023-03-21T03:28:53.147Z,8.00
2023-03-21T03:31:27.489Z,8.00
2023-03-21T03:34:07.050Z,7.90
2023-03-21T03:36:39.587Z,7.90
2023-03-21T03:39:10.041Z,7.90
2023-03-21T03:42:18.452Z,7.80
2023-03-21T03:44:53.172Z,7.70
2023-03-21T03:47:32.736Z,7.60
2023-03-21T03:50:09.379Z,7.60
2023-03-21T03:52:59.810Z,7.40
2023-03-21T03:55:28.089Z,7.40
2023-03-21T03:57:55.661Z,7.30
2023-03-21T04:00:22.368Z,7.20
2023-03-21T04:02:49.190Z,7.10
2023-03-21T04:05:21.274Z,7.10
2023-03-21T04:07:51.206Z,7.10
2023-03-21T04:10:18.413Z,7.00
2023-03-21T04:12:53.185Z,7.00
2023-03-21T04:15:20.346Z,6.90
2023-03-21T04:17:47.290Z,6.80
2023-03-21T04:20:23.522Z,6.80
2023-03-21T04:22:57.478Z,6.80
2023-03-21T04:25:32.782Z,6.80
2023-03-21T04:27:59.961Z,6.70
2023-03-21T04:30:26.849Z,6.70
2023-03-21T04:33:01.129Z,6.70
2023-03-21T04:35:28.577Z,6.70
2023-03-21T04:37:55.819Z,6.60
2023-03-21T04:40:22.784Z,6.60
2023-03-21T04:42:49.650Z,6.60
2023-03-21T04:45:16.937Z,6.50
2023-03-21T04:47:43.893Z,6.50
2023-03-21T04:50:12.939Z,6.40
2023-03-21T04:52:39.894Z,6.30
2023-03-21T04:55:10.044Z,6.30
2023-03-21T04:57:39.821Z,6.20
2023-03-21T05:00:10.332Z,6.20
2023-03-21T05:02:37.881Z,6.20
2023-03-21T05:05:04.982Z,6.20
2023-03-21T05:07:32.692Z,6.10
2023-03-21T05:10:01.851Z,6.10
2023-03-21T05:12:29.082Z,6.10
2023-03-21T05:14:55.769Z,6.10
2023-03-21T05:17:24.925Z,6.10
2023-03-21T05:19:52.866Z,6.10
2023-03-21T05:22:19.936Z,6.10
2023-03-21T05:24:50.294Z,6.00
2023-03-21T05:27:35.283Z,6.00
2023-03-21T05:30:13.967Z,6.00
2023-03-21T05:32:41.258Z,6.10
2023-03-21T05:35:08.469Z,6.10
2023-03-21T05:37:36.598Z,6.10
2023-03-21T05:40:06.254Z,6.20
2023-03-21T05:42:33.265Z,6.20
2023-03-21T05:45:03.781Z,6.20
2023-03-21T05:47:30.504Z,6.30
2023-03-21T05:49:57.207Z,6.30
2023-03-21T05:52:24.140Z,6.40
2023-03-21T05:54:51.099Z,6.30
2023-03-21T05:57:19.156Z,6.40
2023-03-21T05:59:45.970Z,6.40
2023-03-21T06:02:12.905Z,6.50
2023-03-21T06:04:39.809Z,6.50
2023-03-21T06:07:06.508Z,6.60
2023-03-21T06:09:33.923Z,6.60
2023-03-21T06:12:01.020Z,6.60
2023-03-21T06:14:27.841Z,6.60
2023-03-21T06:16:54.553Z,6.60
2023-03-21T06:19:21.803Z,6.70
2023-03-21T06:21:49.199Z,6.70
2023-03-21T06:24:17.689Z,6.80
2023-03-21T06:26:45.414Z,7.00
2023-03-21T06:29:12.214Z,7.00
2023-03-21T06:31:39.035Z,7.10
2023-03-21T06:34:06.529Z,7.20
2023-03-21T06:36:33.441Z,7.30
2023-03-21T06:39:00.659Z,7.40
2023-03-21T06:41:27.431Z,7.50
2023-03-21T06:43:54.117Z,7.60
2023-03-21T06:46:20.784Z,7.70
2023-03-21T06:48:47.507Z,7.80
2023-03-21T06:51:15.329Z,8.00
2023-03-21T06:53:42.143Z,8.10
2023-03-21T06:56:10.868Z,8.20
2023-03-21T06:58:38.232Z,8.30
2023-03-21T07:01:05.955Z,8.50
2023-03-21T07:03:34.154Z,8.70
2023-03-21T07:06:07.092Z,9.00
2023-03-21T07:08:33.972Z,9.30
2023-03-21T07:11:00.675Z,9.60
2023-03-21T07:13:27.425Z,9.70
2023-03-21T07:15:54.431Z,9.90
2023-03-21T07:18:21.350Z,10.00
2023-03-21T07:20:50.941Z,10.00
2023-03-21T07:23:22.955Z,10.20
2023-03-21T07:25:50.886Z,10.20
2023-03-21T07:28:18.814Z,10.20
2023-03-21T07:30:51.524Z,10.30
2023-03-21T07:33:18.193Z,10.40
2023-03-21T07:35:45.001Z,10.60
2023-03-21T07:38:12.149Z,10.60
2023-03-21T07:40:39.107Z,10.70
2023-03-21T07:43:06.033Z,10.60
2023-03-21T07:45:32.621Z,10.70
2023-03-21T07:47:59.448Z,10.80
2023-03-21T07:50:26.218Z,10.90
2023-03-21T07:52:53.013Z,11.00
2023-03-21T07:55:19.795Z,11.00
2023-03-21T07:57:49.181Z,11.00
2023-03-21T08:00:22.835Z,11.10
2023-03-21T08:02:57.892Z,11.10
2023-03-21T08:05:33.207Z,11.10
2023-03-21T08:08:00.575Z,11.10
2023-03-21T08:10:27.910Z,11.20
2023-03-21T08:12:54.702Z,11.30
2023-03-21T08:15:21.712Z,11.40
2023-03-21T08:17:48.364Z,11.30
2023-03-21T08:20:18.132Z,11.50
2023-03-21T08:22:44.973Z,11.50
2023-03-21T08:25:13.961Z,11.60
2023-03-21T08:27:42.504Z,11.70
2023-03-21T08:30:12.206Z,11.70
2023-03-21T08:32:39.573Z,11.80
2023-03-21T08:35:11.773Z,11.80
2023-03-21T08:37:40.939Z,11.90
2023-03-21T08:40:13.379Z,12.20
2023-03-21T08:42:44.610Z,12.30
2023-03-21T08:45:13.275Z,12.40
2023-03-21T08:47:40.341Z,12.50
2023-03-21T08:50:08.929Z,12.70
2023-03-21T08:52:35.615Z,12.50
2023-03-21T08:55:02.657Z,12.70
2023-03-21T08:57:30.386Z,13.10
2023-03-21T08:59:57.250Z,13.50
2023-03-21T09:02:24.081Z,13.60
2023-03-21T09:04:53.074Z,13.70
2023-03-21T09:07:20.055Z,13.90
2023-03-21T09:09:50.903Z,14.20
2023-03-21T09:12:24.857Z,14.30
2023-03-21T09:14:53.236Z,14.40
2023-03-21T09:17:21.254Z,14.50
2023-03-21T09:19:49.774Z,14.70
2023-03-21T09:22:21.301Z,14.70
2023-03-21T09:24:49.169Z,15.00
2023-03-21T09:27:23.008Z,15.20
2023-03-21T09:29:50.333Z,15.40
2023-03-21T09:32:18.201Z,15.60
2023-03-21T09:34:45.911Z,15.70
2023-03-21T09:37:15.568Z,15.60
2023-03-21T09:39:44.759Z,15.60
2023-03-21T09:42:27.362Z,15.50
2023-03-21T09:45:16.248Z,15.70
2023-03-21T09:47:56.942Z,16.00
2023-03-21T09:50:33.746Z,16.10
2023-03-21T09:53:05.767Z,15.90
2023-03-21T09:55:38.665Z,15.90
2023-03-21T09:58:26.059Z,15.80
2023-03-21T10:01:22.407Z,15.90
2023-03-21T10:03:54.154Z,15.80
2023-03-21T10:06:28.780Z,16.00
2023-03-21T10:08:58.914Z,15.90
2023-03-21T10:11:32.195Z,15.90
2023-03-21T10:14:04.834Z,16.00
2023-03-21T10:16:38.945Z,16.00
2023-03-21T10:19:12.648Z,16.20
2023-03-21T10:22:03.443Z,16.00
2023-03-21T10:24:33.591Z,16.20
2023-03-21T10:27:02.399Z,16.00
2023-03-21T10:29:42.309Z,15.90
2023-03-21T10:32:17.613Z,16.00
2023-03-21T10:34:50.647Z,16.30
2023-03-21T10:37:17.621Z,16.20
2023-03-21T10:39:47.374Z,16.10
2023-03-21T10:42:24.753Z,16.00
2023-03-21T10:44:54.170Z,15.60
2023-03-21T10:47:24.688Z,15.80
2023-03-21T10:50:08.920Z,15.90
2023-03-21T10:52:41.566Z,15.60
2023-03-21T10:55:28.784Z,15.00
2023-03-21T10:57:59.640Z,15.10
2023-03-21T11:00:30.242Z,15.20
2023-03-21T11:02:57.905Z,15.00
2023-03-21T11:05:37.447Z,14.80
2023-03-21T11:08:10.928Z,14.80
2023-03-21T11:10:51.066Z,15.00
2023-03-21T11:13:23.723Z,14.70
2023-03-21T11:16:03.681Z,14.70
2023-03-21T11:18:33.286Z,14.60
2023-03-21T11:21:07.689Z,14.30
2023-03-21T11:23:38.852Z,14.40
2023-03-21T11:26:17.260Z,14.30
2023-03-21T11:28:46.363Z,14.10
2023-03-21T11:31:13.387Z,14.10
2023-03-21T11:33:45.992Z,14.30
2023-03-21T11:36:18.748Z,14.20
2023-03-21T11:38:59.265Z,14.20
2023-03-21T11:41:32.864Z,14.30
2023-03-21T11:44:01.994Z,14.30
2023-03-21T11:46:31.381Z,14.40
2023-03-21T11:49:00.430Z,14.60
2023-03-21T11:51:33.538Z,14.40
2023-03-21T11:54:21.743Z,14.20
2023-03-21T11:56:55.320Z,14.30
2023-03-21T11:59:46.430Z,14.50
2023-03-21T12:02:27.194Z,14.70
2023-03-21T12:05:03.557Z,15.00
2023-03-21T12:07:51.846Z,15.10
2023-03-21T12:10:36.551Z,15.20
2023-03-21T12:13:15.723Z,15.00
2023-03-21T12:15:55.309Z,14.70
2023-03-21T12:18:45.864Z,14.70
2023-03-21T12:21:33.153Z,14.80
2023-03-21T12:24:20.509Z,14.50
2023-03-21T12:27:06.236Z,14.50
2023-03-21T12:29:44.931Z,15.00
2023-03-21T12:32:25.793Z,15.00
2023-03-21T12:35:29.647Z,14.90
2023-03-21T12:38:23.070Z,15.00
2023-03-21T12:41:11.768Z,15.20
2023-03-21T12:43:47.569Z,15.20
2023-03-21T12:46:20.001Z,15.20
2023-03-21T12:48:54.034Z,15.30
2023-03-21T12:51:29.502Z,15.20
2023-03-21T12:54:08.197Z,15.10
2023-03-21T12:56:56.847Z,15.50
2023-03-21T12:59:36.243Z,16.00
2023-03-21T13:02:31.935Z,16.30
2023-03-21T13:05:18.920Z,15.90
2023-03-21T13:08:18.972Z,16.10
2023-03-21T13:10:46.528Z,15.70
2023-03-21T13:13:19.606Z,15.60
2023-03-21T13:16:09.081Z,15.60
2023-03-21T13:19:00.328Z,15.60
2023-03-21T13:21:41.965Z,15.30
2023-03-21T13:24:33.017Z,15.20
2023-03-21T13:27:24.682Z,15.20
2023-03-21T13:30:06.468Z,15.00
2023-03-21T13:32:38.382Z,15.10
2023-03-21T13:35:20.148Z,15.40
2023-03-21T13:37:54.200Z,15.60
2023-03-21T13:40:35.878Z,15.80
2023-03-21T13:43:03.805Z,15.60
2023-03-21T13:45:52.192Z,15.50
2023-03-21T13:48:44.077Z,15.40
2023-03-21T13:51:37.490Z,15.30
2023-03-21T13:54:07.201Z,15.40
2023-03-21T13:56:46.409Z,15.40
2023-03-21T13:59:44.106Z,15.30
2023-03-21T14:02:22.636Z,15.60
2023-03-21T14:05:05.420Z,16.00
2023-03-21T14:07:34.656Z,15.90
2023-03-21T14:10:06.358Z,15.80
2023-03-21T14:12:43.624Z,15.70
2023-03-21T14:15:27.618Z,15.40
2023-03-21T14:17:57.700Z,15.40
2023-03-21T14:20:33.605Z,15.80
2023-03-21T14:23:00.893Z,15.90
2023-03-21T14:25:44.373Z,15.80
2023-03-21T14:28:20.458Z,15.80
2023-03-21T14:30:53.772Z,15.70
2023-03-21T14:33:28.845Z,15.50
2023-03-21T14:36:01.862Z,15.60
2023-03-21T14:38:36.622Z,15.70
2023-03-21T14:41:04.006Z,15.50
2023-03-21T14:43:33.961Z,15.30
2023-03-21T14:46:01.691Z,15.60
2023-03-21T14:48:33.705Z,15.70
2023-03-21T14:51:04.610Z,15.60
2023-03-21T14:53:36.143Z,15.50
2023-03-21T14:56:06.289Z,15.30
2023-03-21T14:58:34.077Z,15.40
2023-03-21T15:01:06.322Z,15.20
2023-03-21T15:03:34.199Z,15.30
2023-03-21T15:06:01.988Z,15.40
2023-03-21T15:08:29.425Z,15.50
2023-03-21T15:11:09.917Z,15.50
2023-03-21T15:13:40.422Z,15.20
2023-03-21T15:16:08.431Z,15.30
2023-03-21T15:18:38.210Z,15.00
2023-03-21T15:21:10.230Z,14.80
2023-03-21T15:23:39.252Z,14.80
2023-03-21T15:26:06.533Z,15.00
2023-03-21T15:28:35.245Z,14.70
2023-03-21T15:31:02.404Z,14.70
2023-03-21T15:33:29.117Z,14.60
2023-03-21T15:36:00.558Z,14.60
2023-03-21T15:38:32.890Z,14.60
2023-03-21T15:41:15.830Z,14.50
2023-03-21T15:43:43.467Z,14.50
2023-03-21T15:46:31.487Z,14.50
2023-03-21T15:49:10.791Z,14.30
2023-03-21T15:51:37.696Z,14.20
2023-03-21T15:54:05.152Z,14.30
2023-03-21T15:56:36.092Z,14.40
2023-03-21T15:59:05.632Z,14.30
2023-03-21T16:01:38.951Z,14.30
2023-03-21T16:04:11.014Z,14.30
2023-03-21T16:06:39.571Z,14.20
2023-03-21T16:09:12.045Z,14.10
2023-03-21T16:11:43.982Z,14.00
2023-03-21T16:14:10.752Z,13.90
2023-03-21T16:16:38.092Z,13.90
2023-03-21T16:19:07.123Z,13.60
2023-03-21T16:21:34.595Z,13.60
2023-03-21T16:24:02.137Z,13.60
2023-03-21T16:26:34.049Z,13.70
2023-03-21T16:29:00.682Z,13.60
2023-03-21T16:31:30.129Z,13.60
2023-03-21T16:33:57.136Z,13.60
2023-03-21T16:36:26.875Z,13.60
2023-03-21T16:38:54.813Z,13.60
2023-03-21T16:41:23.850Z,13.60
2023-03-21T16:43:52.207Z,13.50
2023-03-21T16:46:24.154Z,13.60
2023-03-21T16:48:57.627Z,13.60
2023-03-21T16:51:30.468Z,13.60
2023-03-21T16:53:57.850Z,13.60
2023-03-21T16:56:30.708Z,13.70
2023-03-21T16:58:57.936Z,13.60
2023-03-21T17:01:30.026Z,13.60
2023-03-21T17:04:00.591Z,13.50
2023-03-21T17:06:29.970Z,13.50
2023-03-21T17:08:58.687Z,13.30
2023-03-21T17:11:27.391Z,13.20
2023-03-21T17:13:55.167Z,13.20
2023-03-21T17:16:27.062Z,13.10
2023-03-21T17:18:55.163Z,13.10
2023-03-21T17:21:27.656Z,13.00
2023-03-21T17:23:55.702Z,12.90
2023-03-21T17:26:28.037Z,12.80
2023-03-21T17:28:59.812Z,12.70
2023-03-21T17:31:28.411Z,12.70
2023-03-21T17:33:55.370Z,12.60
2023-03-21T17:36:28.291Z,12.50
2023-03-21T17:38:55.431Z,12.50
2023-03-21T17:41:22.740Z,12.50
2023-03-21T17:43:51.013Z,12.40
2023-03-21T17:46:22.104Z,12.40
2023-03-21T17:48:49.362Z,12.30
2023-03-21T17:51:17.055Z,12.20
2023-03-21T17:53:50.659Z,12.10
2023-03-21T17:56:22.390Z,12.10
2023-03-21T17:58:49.484Z,12.00
2023-03-21T18:01:16.191Z,11.90
2023-03-21T18:03:42.869Z,11.80
2023-03-21T18:06:19.362Z,11.80
2023-03-21T18:08:46.793Z,11.70
2023-03-21T18:11:15.123Z,11.70
2023-03-21T18:13:43.297Z,11.60
2023-03-21T18:16:22.243Z,11.60
2023-03-21T18:18:49.533Z,11.60
2023-03-21T18:21:20.109Z,11.60
2023-03-21T18:23:47.488Z,11.50
2023-03-21T18:26:18.221Z,11.50
2023-03-21T18:28:46.776Z,11.50
2023-03-21T18:31:20.538Z,11.50
2023-03-21T18:33:50.108Z,11.50
2023-03-21T18:36:25.204Z,11.50
2023-03-21T18:38:52.500Z,11.50
2023-03-21T18:41:19.830Z,11.60
2023-03-21T18:44:09.532Z,11.50
2023-03-21T18:46:33.819Z,11.50
2023-03-21T18:49:20.011Z,11.50
2023-03-21T18:51:47.877Z,11.50
2023-03-21T18:54:14.828Z,11.50
2023-03-21T18:59:32.528Z,11.50
2023-03-21T19:01:59.254Z,11.50
2023-03-21T19:04:30.225Z,11.50
2023-03-21T19:06:58.346Z,11.50
2023-03-21T19:09:31.243Z,11.50
2023-03-21T19:11:58.633Z,11.40
2023-03-21T19:14:25.457Z,11.40
2023-03-21T19:19:39.400Z,11.40
2023-03-21T19:22:06.369Z,11.30
2023-03-21T19:24:33.137Z,11.30
2023-03-21T19:26:59.926Z,11.40
2023-03-21T19:29:26.705Z,11.40
2023-03-21T19:31:53.805Z,11.40
2023-03-21T19:34:20.698Z,11.30
2023-03-21T19:36:51.534Z,11.30
2023-03-21T19:39:22.622Z,11.30
2023-03-21T19:41:50.900Z,11.20
2023-03-21T19:44:19.151Z,11.20
2023-03-21T19:46:46.039Z,11.20
2023-03-21T19:49:12.958Z,11.20
2023-03-21T19:51:39.727Z,11.10
2023-03-21T19:54:07.670Z,11.10
2023-03-21T19:56:34.979Z,11.20
2023-03-21T19:59:03.291Z,11.10
2023-03-21T20:01:32.265Z,11.00
2023-03-21T20:03:59.536Z,11.00
2023-03-21T20:06:27.259Z,11.00
2023-03-21T20:09:34.007Z,10.90
2023-03-21T20:11:40.847Z,10.90
2023-03-21T20:14:07.615Z,10.90
2023-03-21T20:16:36.467Z,11.00
2023-03-21T20:19:05.851Z,10.90
2023-03-21T20:21:40.181Z,10.90
2023-03-21T20:24:12.831Z,11.00
2023-03-21T20:26:39.511Z,10.90
2023-03-21T20:29:41.072Z,10.90
2023-03-21T20:31:53.158Z,10.90
2023-03-21T20:34:21.124Z,10.90
2023-03-21T20:36:48.253Z,10.80
2023-03-21T20:39:15.487Z,10.80
2023-03-21T20:41:42.412Z,10.90
2023-03-21T20:46:57.310Z,10.90
2023-03-21T20:49:24.889Z,10.90
2023-03-21T20:54:38.827Z,10.90
2023-03-21T20:57:05.533Z,10.90
2023-03-21T20:59:32.433Z,10.90
2023-03-21T21:01:59.327Z,10.90
2023-03-21T21:04:48.148Z,10.90
2023-03-21T21:07:20.870Z,10.90
2023-03-21T21:09:49.217Z,10.90
2023-03-21T21:12:19.253Z,11.00
2023-03-21T21:14:47.737Z,11.00
2023-03-21T21:17:31.215Z,11.00
2023-03-21T21:20:16.741Z,11.00
2023-03-21T21:22:58.568Z,11.00
2023-03-21T21:25:26.073Z,11.00
2023-03-21T21:27:53.753Z,11.00
2023-03-21T21:30:20.695Z,11.00
2023-03-21T21:32:47.380Z,11.00
2023-03-21T21:35:14.156Z,11.00
2023-03-21T21:37:42.052Z,10.90
2023-03-21T21:40:13.685Z,11.00
2023-03-21T21:42:44.129Z,10.90
2023-03-21T21:45:13.132Z,10.90
2023-03-21T21:47:40.506Z,10.90
2023-03-21T21:50:07.869Z,10.90
2023-03-21T21:52:34.802Z,10.80
2023-03-21T21:55:02.006Z,10.80
2023-03-21T21:57:30.436Z,10.80
2023-03-21T21:59:57.182Z,10.70
2023-03-21T22:02:25.280Z,10.70
2023-03-21T22:04:55.424Z,10.60
2023-03-21T22:07:25.226Z,10.50
2023-03-21T22:09:52.030Z,10.50
2023-03-21T22:12:18.785Z,10.50
2023-03-21T22:14:45.597Z,10.40
2023-03-21T22:17:12.496Z,10.40
2023-03-21T22:19:40.455Z,10.30
2023-03-21T22:22:07.437Z,10.20
2023-03-21T22:24:34.301Z,10.20
2023-03-21T22:27:01.067Z,10.10
2023-03-21T22:29:28.746Z,10.00
2023-03-21T22:31:55.829Z,9.90
2023-03-21T22:34:23.431Z,9.80
2023-03-21T22:36:50.610Z,9.80
2023-03-21T22:39:26.092Z,9.70
2023-03-21T22:42:01.444Z,9.70
2023-03-21T22:44:34.426Z,9.70
2023-03-21T22:47:06.489Z,9.60
2023-03-21T22:49:33.248Z,9.50
2023-03-21T22:52:01.520Z,9.40
2023-03-21T22:54:28.283Z,9.40
2023-03-21T22:56:55.357Z,9.30
2023-03-21T22:59:22.218Z,9.30
2023-03-21T23:01:49.256Z,9.20
2023-03-21T23:04:16.647Z,9.20
2023-03-21T23:06:44.064Z,9.10
2023-03-21T23:09:11.053Z,9.00
2023-03-21T23:11:38.357Z,8.90
2023-03-21T23:14:08.353Z,8.80
2023-03-21T23:16:38.120Z,8.70
2023-03-21T23:19:05.760Z,8.60
2023-03-21T23:21:34.435Z,8.50
2023-03-21T23:24:01.214Z,8.50
2023-03-21T23:26:28.475Z,8.40
2023-03-21T23:28:55.366Z,8.30
2023-03-21T23:31:23.733Z,8.30
2023-03-21T23:33:51.156Z,8.30
2023-03-21T23:36:19.142Z,8.20
2023-03-21T23:38:46.252Z,8.20
2023-03-21T23:41:15.878Z,8.10
2023-03-21T23:43:43.655Z,8.20
2023-03-21T23:46:12.779Z,8.10
2023-03-21T23:48:40.697Z,8.10
2023-03-21T23:51:08.060Z,8.10
2023-03-21T23:53:34.765Z,8.10
2023-03-21T23:56:01.696Z,8.10
2023-03-21T23:58:29.520Z,8.10
